sensor_id;sensor_type;location;lat;lon;timestamp;temperature;humidity
10155;DHT22;5118;48.570;7.916;2023-01-28T00:01:35;1.90;99.90
10155;DHT22;5118;48.570;7.916;2023-01-28T00:04:03;1.90;99.90
10155;DHT22;5118;48.570;7.916;2023-01-28T00:06:31;2.00;99.90
10155;DHT22;5118;48.570;7.916;2023-01-28T00:09:00;2.00;99.90
10155;DHT22;5118;48.570;7.916;2023-01-28T00:11:29;2.00;99.90
10155;DHT22;5118;48.570;7.916;2023-01-28T00:13:58;2.10;99.90
10155;DHT22;5118;48.570;7.916;2023-01-28T00:16:27;2.10;99.90
10155;DHT22;5118;48.570;7.916;2023-01-28T00:18:56;2.10;99.90
10155;DHT22;5118;48.570;7.916;2023-01-28T00:21:25;2.20;99.90
10155;DHT22;5118;48.570;7.916;2023-01-28T00:23:54;2.20;99.90
10155;DHT22;5118;48.570;7.916;2023-01-28T00:26:23;2.20;99.90
10155;DHT22;5118;48.570;7.916;2023-01-28T00:28:53;2.20;99.90
10155;DHT22;5118;48.570;7.916;2023-01-28T00:31:23;2.20;99.90
10155;DHT22;5118;48.570;7.916;2023-01-28T00:33:54;2.20;99.90
10155;DHT22;5118;48.570;7.916;2023-01-28T00:36:24;2.30;99.90
10155;DHT22;5118;48.570;7.916;2023-01-28T00:38:54;2.30;99.90
10155;DHT22;5118;48.570;7.916;2023-01-28T00:41:24;2.30;99.90
10155;DHT22;5118;48.570;7.916;2023-01-28T00:43:54;2.30;99.90
10155;DHT22;5118;48.570;7.916;2023-01-28T00:46:23;2.30;99.90
10155;DHT22;5118;48.570;7.916;2023-01-28T00:48:52;2.30;99.90
10155;DHT22;5118;48.570;7.916;2023-01-28T00:51:21;2.20;99.90
10155;DHT22;5118;48.570;7.916;2023-01-28T00:53:49;2.20;99.90
10155;DHT22;5118;48.570;7.916;2023-01-28T00:56:18;2.20;99.90
10155;DHT22;5118;48.570;7.916;2023-01-28T00:58:46;2.20;99.90
10155;DHT22;5118;48.570;7.916;2023-01-28T01:01:18;2.10;99.90
10155;DHT22;5118;48.570;7.916;2023-01-28T01:03:48;2.00;99.90
10155;DHT22;5118;48.570;7.916;2023-01-28T01:06:24;2.00;99.90
10155;DHT22;5118;48.570;7.916;2023-01-28T01:08:52;1.80;99.90
10155;DHT22;5118;48.570;7.916;2023-01-28T01:11:21;1.70;99.90
10155;DHT22;5118;48.570;7.916;2023-01-28T01:13:51;1.60;99.90
10155;DHT22;5118;48.570;7.916;2023-01-28T01:16:24;1.50;99.90
10155;DHT22;5118;48.570;7.916;2023-01-28T01:18:53;1.40;99.90
10155;DHT22;5118;48.570;7.916;2023-01-28T01:21:24;1.30;99.90
10155;DHT22;5118;48.570;7.916;2023-01-28T01:23:54;1.30;99.90
10155;DHT22;5118;48.570;7.916;2023-01-28T01:26:23;1.30;99.90
10155;DHT22;5118;48.570;7.916;2023-01-28T01:28:53;1.30;99.90
10155;DHT22;5118;48.570;7.916;2023-01-28T01:31:22;1.40;99.90
10155;DHT22;5118;48.570;7.916;2023-01-28T01:33:51;1.40;99.90
10155;DHT22;5118;48.570;7.916;2023-01-28T01:36:20;1.50;99.90
10155;DHT22;5118;48.570;7.916;2023-01-28T01:38:52;1.60;99.90
10155;DHT22;5118;48.570;7.916;2023-01-28T01:41:24;1.70;99.90
10155;DHT22;5118;48.570;7.916;2023-01-28T01:43:55;1.70;99.90
10155;DHT22;5118;48.570;7.916;2023-01-28T01:46:31;1.70;99.90
10155;DHT22;5118;48.570;7.916;2023-01-28T01:49:07;1.80;99.90
10155;DHT22;5118;48.570;7.916;2023-01-28T01:51:36;1.90;99.90
10155;DHT22;5118;48.570;7.916;2023-01-28T01:54:05;1.90;99.90
10155;DHT22;5118;48.570;7.916;2023-01-28T01:56:37;1.90;99.90
10155;DHT22;5118;48.570;7.916;2023-01-28T01:59:10;2.00;99.90
10155;DHT22;5118;48.570;7.916;2023-01-28T02:01:41;2.00;99.90
10155;DHT22;5118;48.570;7.916;2023-01-28T02:04:16;2.00;99.90
10155;DHT22;5118;48.570;7.916;2023-01-28T02:06:47;2.10;99.90
10155;DHT22;5118;48.570;7.916;2023-01-28T02:09:23;2.10;99.90
10155;DHT22;5118;48.570;7.916;2023-01-28T02:11:53;2.10;99.90
10155;DHT22;5118;48.570;7.916;2023-01-28T02:14:24;2.10;99.90
10155;DHT22;5118;48.570;7.916;2023-01-28T02:16:59;2.10;99.90
10155;DHT22;5118;48.570;7.916;2023-01-28T02:19:34;2.20;99.90
10155;DHT22;5118;48.570;7.916;2023-01-28T02:22:13;2.10;99.90
10155;DHT22;5118;48.570;7.916;2023-01-28T02:25:14;2.20;99.90
10155;DHT22;5118;48.570;7.916;2023-01-28T02:30:48;2.10;99.90
10155;DHT22;5118;48.570;7.916;2023-01-28T02:33:25;2.10;99.90
10155;DHT22;5118;48.570;7.916;2023-01-28T02:36:02;2.10;99.90
10155;DHT22;5118;48.570;7.916;2023-01-28T02:38:39;2.10;99.90
10155;DHT22;5118;48.570;7.916;2023-01-28T02:41:14;2.00;99.90
10155;DHT22;5118;48.570;7.916;2023-01-28T02:43:48;2.10;99.90
10155;DHT22;5118;48.570;7.916;2023-01-28T02:46:31;2.10;99.90
10155;DHT22;5118;48.570;7.916;2023-01-28T02:49:20;2.10;99.90
10155;DHT22;5118;48.570;7.916;2023-01-28T02:52:29;2.20;99.90
10155;DHT22;5118;48.570;7.916;2023-01-28T02:55:28;2.20;99.90
10155;DHT22;5118;48.570;7.916;2023-01-28T02:58:04;2.20;99.90
10155;DHT22;5118;48.570;7.916;2023-01-28T03:00:43;2.20;99.90
10155;DHT22;5118;48.570;7.916;2023-01-28T03:03:17;2.30;99.90
10155;DHT22;5118;48.570;7.916;2023-01-28T03:05:50;2.30;99.90
10155;DHT22;5118;48.570;7.916;2023-01-28T03:08:35;2.30;99.90
10155;DHT22;5118;48.570;7.916;2023-01-28T03:11:23;2.30;99.90
10155;DHT22;5118;48.570;7.916;2023-01-28T03:14:09;2.30;99.90
10155;DHT22;5118;48.570;7.916;2023-01-28T03:16:59;2.40;99.90
10155;DHT22;5118;48.570;7.916;2023-01-28T03:19:46;2.30;99.90
10155;DHT22;5118;48.570;7.916;2023-01-28T03:22:35;2.30;99.90
10155;DHT22;5118;48.570;7.916;2023-01-28T03:25:23;2.30;99.90
10155;DHT22;5118;48.570;7.916;2023-01-28T03:28:14;2.30;99.90
10155;DHT22;5118;48.570;7.916;2023-01-28T03:31:06;2.30;99.90
10155;DHT22;5118;48.570;7.916;2023-01-28T03:33:58;2.30;99.90
10155;DHT22;5118;48.570;7.916;2023-01-28T03:36:45;2.30;99.90
10155;DHT22;5118;48.570;7.916;2023-01-28T03:39:43;2.30;99.90
10155;DHT22;5118;48.570;7.916;2023-01-28T03:42:13;2.30;99.90
10155;DHT22;5118;48.570;7.916;2023-01-28T03:44:59;2.40;99.90
10155;DHT22;5118;48.570;7.916;2023-01-28T03:47:31;2.40;99.90
10155;DHT22;5118;48.570;7.916;2023-01-28T03:50:04;2.40;99.90
10155;DHT22;5118;48.570;7.916;2023-01-28T03:52:41;2.40;99.90
10155;DHT22;5118;48.570;7.916;2023-01-28T03:55:27;2.50;99.90
10155;DHT22;5118;48.570;7.916;2023-01-28T03:57:55;2.50;99.90
10155;DHT22;5118;48.570;7.916;2023-01-28T04:00:25;2.50;99.90
10155;DHT22;5118;48.570;7.916;2023-01-28T04:02:54;2.50;99.90
10155;DHT22;5118;48.570;7.916;2023-01-28T04:05:24;2.50;99.90
10155;DHT22;5118;48.570;7.916;2023-01-28T04:07:53;2.50;99.90
10155;DHT22;5118;48.570;7.916;2023-01-28T04:10:49;2.50;99.90
10155;DHT22;5118;48.570;7.916;2023-01-28T04:13:23;2.50;99.90
10155;DHT22;5118;48.570;7.916;2023-01-28T04:15:52;2.50;99.90
10155;DHT22;5118;48.570;7.916;2023-01-28T04:18:20;2.50;99.90
10155;DHT22;5118;48.570;7.916;2023-01-28T04:20:57;2.50;99.90
10155;DHT22;5118;48.570;7.916;2023-01-28T04:23:26;2.50;99.90
10155;DHT22;5118;48.570;7.916;2023-01-28T04:25:56;2.50;99.90
10155;DHT22;5118;48.570;7.916;2023-01-28T04:28:24;2.50;99.90
10155;DHT22;5118;48.570;7.916;2023-01-28T04:30:53;2.50;99.90
10155;DHT22;5118;48.570;7.916;2023-01-28T04:33:44;2.50;99.90
10155;DHT22;5118;48.570;7.916;2023-01-28T04:36:26;2.50;99.90
10155;DHT22;5118;48.570;7.916;2023-01-28T04:39:04;2.50;99.90
10155;DHT22;5118;48.570;7.916;2023-01-28T04:41:45;2.50;99.90
10155;DHT22;5118;48.570;7.916;2023-01-28T04:44:19;2.50;99.90
10155;DHT22;5118;48.570;7.916;2023-01-28T04:47:01;2.50;99.90
10155;DHT22;5118;48.570;7.916;2023-01-28T04:49:56;2.50;99.90
10155;DHT22;5118;48.570;7.916;2023-01-28T04:52:46;2.50;99.90
10155;DHT22;5118;48.570;7.916;2023-01-28T04:55:38;2.50;99.90
10155;DHT22;5118;48.570;7.916;2023-01-28T04:58:07;2.50;99.90
10155;DHT22;5118;48.570;7.916;2023-01-28T05:00:35;2.50;99.90
10155;DHT22;5118;48.570;7.916;2023-01-28T05:03:04;2.50;99.90
10155;DHT22;5118;48.570;7.916;2023-01-28T05:05:32;2.50;99.90
10155;DHT22;5118;48.570;7.916;2023-01-28T05:08:19;2.50;99.90
10155;DHT22;5118;48.570;7.916;2023-01-28T05:10:47;2.50;99.90
10155;DHT22;5118;48.570;7.916;2023-01-28T05:13:16;2.50;99.90
10155;DHT22;5118;48.570;7.916;2023-01-28T05:15:50;2.60;99.90
10155;DHT22;5118;48.570;7.916;2023-01-28T05:18:19;2.60;99.90
10155;DHT22;5118;48.570;7.916;2023-01-28T05:21:00;2.60;99.90
10155;DHT22;5118;48.570;7.916;2023-01-28T05:23:31;2.60;99.90
10155;DHT22;5118;48.570;7.916;2023-01-28T05:25:59;2.60;99.90
10155;DHT22;5118;48.570;7.916;2023-01-28T05:28:29;2.60;99.90
10155;DHT22;5118;48.570;7.916;2023-01-28T05:31:02;2.60;99.90
10155;DHT22;5118;48.570;7.916;2023-01-28T05:33:31;2.60;99.90
10155;DHT22;5118;48.570;7.916;2023-01-28T05:35:59;2.60;99.90
10155;DHT22;5118;48.570;7.916;2023-01-28T05:38:28;2.60;99.90
10155;DHT22;5118;48.570;7.916;2023-01-28T05:40:58;2.60;99.90
10155;DHT22;5118;48.570;7.916;2023-01-28T05:43:26;2.60;99.90
10155;DHT22;5118;48.570;7.916;2023-01-28T05:46:13;2.60;99.90
10155;DHT22;5118;48.570;7.916;2023-01-28T05:49:00;2.70;99.90
10155;DHT22;5118;48.570;7.916;2023-01-28T05:52:07;2.70;99.90
10155;DHT22;5118;48.570;7.916;2023-01-28T05:54:36;2.60;99.90
10155;DHT22;5118;48.570;7.916;2023-01-28T05:57:06;2.70;99.90
10155;DHT22;5118;48.570;7.916;2023-01-28T05:59:35;2.70;99.90
10155;DHT22;5118;48.570;7.916;2023-01-28T06:02:03;2.70;99.90
10155;DHT22;5118;48.570;7.916;2023-01-28T06:04:32;2.70;99.90
10155;DHT22;5118;48.570;7.916;2023-01-28T06:07:00;2.70;99.90
10155;DHT22;5118;48.570;7.916;2023-01-28T06:09:29;2.70;99.90
10155;DHT22;5118;48.570;7.916;2023-01-28T06:11:58;2.70;99.90
10155;DHT22;5118;48.570;7.916;2023-01-28T06:14:28;2.70;99.90
10155;DHT22;5118;48.570;7.916;2023-01-28T06:17:10;2.70;99.90
10155;DHT22;5118;48.570;7.916;2023-01-28T06:19:57;2.70;99.90
10155;DHT22;5118;48.570;7.916;2023-01-28T06:22:26;2.70;99.90
10155;DHT22;5118;48.570;7.916;2023-01-28T06:24:55;2.60;99.90
10155;DHT22;5118;48.570;7.916;2023-01-28T06:27:23;2.60;99.90
10155;DHT22;5118;48.570;7.916;2023-01-28T06:29:53;2.60;99.90
10155;DHT22;5118;48.570;7.916;2023-01-28T06:32:21;2.60;99.90
10155;DHT22;5118;48.570;7.916;2023-01-28T06:34:49;2.60;99.90
10155;DHT22;5118;48.570;7.916;2023-01-28T06:37:18;2.60;99.90
10155;DHT22;5118;48.570;7.916;2023-01-28T06:39:47;2.60;99.90
10155;DHT22;5118;48.570;7.916;2023-01-28T06:42:15;2.60;99.90
10155;DHT22;5118;48.570;7.916;2023-01-28T06:44:43;2.50;99.90
10155;DHT22;5118;48.570;7.916;2023-01-28T06:47:13;2.50;99.90
10155;DHT22;5118;48.570;7.916;2023-01-28T06:49:42;2.50;99.90
10155;DHT22;5118;48.570;7.916;2023-01-28T06:52:10;2.40;99.90
10155;DHT22;5118;48.570;7.916;2023-01-28T06:54:38;2.40;99.90
10155;DHT22;5118;48.570;7.916;2023-01-28T06:57:07;2.40;99.90
10155;DHT22;5118;48.570;7.916;2023-01-28T06:59:35;2.40;99.90
10155;DHT22;5118;48.570;7.916;2023-01-28T07:02:03;2.40;99.90
10155;DHT22;5118;48.570;7.916;2023-01-28T07:04:33;2.40;99.90
10155;DHT22;5118;48.570;7.916;2023-01-28T07:07:01;2.40;99.90
10155;DHT22;5118;48.570;7.916;2023-01-28T07:09:29;2.40;99.90
10155;DHT22;5118;48.570;7.916;2023-01-28T07:11:58;2.40;99.90
10155;DHT22;5118;48.570;7.916;2023-01-28T07:14:26;2.40;99.90
10155;DHT22;5118;48.570;7.916;2023-01-28T07:16:54;2.40;99.90
10155;DHT22;5118;48.570;7.916;2023-01-28T07:19:23;2.40;99.90
10155;DHT22;5118;48.570;7.916;2023-01-28T07:21:52;2.40;99.90
10155;DHT22;5118;48.570;7.916;2023-01-28T07:24:23;2.50;99.90
10155;DHT22;5118;48.570;7.916;2023-01-28T07:26:52;2.50;99.90
10155;DHT22;5118;48.570;7.916;2023-01-28T07:29:20;2.60;99.90
10155;DHT22;5118;48.570;7.916;2023-01-28T07:31:48;2.60;99.90
10155;DHT22;5118;48.570;7.916;2023-01-28T07:34:17;2.70;99.90
10155;DHT22;5118;48.570;7.916;2023-01-28T07:36:45;2.70;99.90
10155;DHT22;5118;48.570;7.916;2023-01-28T07:39:15;2.70;99.90
10155;DHT22;5118;48.570;7.916;2023-01-28T07:41:43;2.70;99.90
10155;DHT22;5118;48.570;7.916;2023-01-28T07:44:29;2.70;99.90
10155;DHT22;5118;48.570;7.916;2023-01-28T07:46:57;2.70;99.90
10155;DHT22;5118;48.570;7.916;2023-01-28T07:49:25;2.70;99.90
10155;DHT22;5118;48.570;7.916;2023-01-28T07:51:54;2.70;99.90
10155;DHT22;5118;48.570;7.916;2023-01-28T07:54:23;2.70;99.90
10155;DHT22;5118;48.570;7.916;2023-01-28T07:56:52;2.70;99.90
10155;DHT22;5118;48.570;7.916;2023-01-28T07:59:21;2.70;99.90
10155;DHT22;5118;48.570;7.916;2023-01-28T08:01:49;2.70;99.90
10155;DHT22;5118;48.570;7.916;2023-01-28T08:04:21;2.70;99.90
10155;DHT22;5118;48.570;7.916;2023-01-28T08:06:49;2.80;99.90
10155;DHT22;5118;48.570;7.916;2023-01-28T08:09:18;2.80;99.90
10155;DHT22;5118;48.570;7.916;2023-01-28T08:11:47;2.80;99.90
10155;DHT22;5118;48.570;7.916;2023-01-28T08:14:16;2.90;99.90
10155;DHT22;5118;48.570;7.916;2023-01-28T08:16:44;2.90;99.90
10155;DHT22;5118;48.570;7.916;2023-01-28T08:19:12;2.90;99.90
10155;DHT22;5118;48.570;7.916;2023-01-28T08:21:41;3.00;99.90
10155;DHT22;5118;48.570;7.916;2023-01-28T08:24:09;3.00;99.90
10155;DHT22;5118;48.570;7.916;2023-01-28T08:26:37;3.10;99.90
10155;DHT22;5118;48.570;7.916;2023-01-28T08:29:07;3.10;99.90
10155;DHT22;5118;48.570;7.916;2023-01-28T08:31:35;3.10;99.90
10155;DHT22;5118;48.570;7.916;2023-01-28T08:34:04;3.20;99.90
10155;DHT22;5118;48.570;7.916;2023-01-28T08:36:32;3.20;99.90
10155;DHT22;5118;48.570;7.916;2023-01-28T08:39:00;3.30;99.90
10155;DHT22;5118;48.570;7.916;2023-01-28T08:41:29;3.30;99.90
10155;DHT22;5118;48.570;7.916;2023-01-28T08:43:57;3.40;99.90
10155;DHT22;5118;48.570;7.916;2023-01-28T08:46:27;3.40;99.90
10155;DHT22;5118;48.570;7.916;2023-01-28T08:48:56;3.40;99.90
10155;DHT22;5118;48.570;7.916;2023-01-28T08:51:24;3.40;99.90
10155;DHT22;5118;48.570;7.916;2023-01-28T08:53:52;3.50;99.90
10155;DHT22;5118;48.570;7.916;2023-01-28T08:56:21;3.50;99.90
10155;DHT22;5118;48.570;7.916;2023-01-28T08:58:49;3.50;99.90
10155;DHT22;5118;48.570;7.916;2023-01-28T09:01:17;3.60;99.90
10155;DHT22;5118;48.570;7.916;2023-01-28T09:03:47;3.70;99.90
10155;DHT22;5118;48.570;7.916;2023-01-28T09:06:15;3.70;99.90
10155;DHT22;5118;48.570;7.916;2023-01-28T09:08:44;3.80;99.90
10155;DHT22;5118;48.570;7.916;2023-01-28T09:11:12;3.90;99.90
10155;DHT22;5118;48.570;7.916;2023-01-28T09:13:40;3.90;99.90
10155;DHT22;5118;48.570;7.916;2023-01-28T09:16:09;4.00;99.90
10155;DHT22;5118;48.570;7.916;2023-01-28T09:18:37;4.10;99.90
10155;DHT22;5118;48.570;7.916;2023-01-28T09:21:07;4.20;99.90
10155;DHT22;5118;48.570;7.916;2023-01-28T09:23:36;4.20;99.90
10155;DHT22;5118;48.570;7.916;2023-01-28T09:26:05;4.30;99.90
10155;DHT22;5118;48.570;7.916;2023-01-28T09:28:35;4.30;99.90
10155;DHT22;5118;48.570;7.916;2023-01-28T09:31:06;4.30;99.90
10155;DHT22;5118;48.570;7.916;2023-01-28T09:33:36;4.40;99.90
10155;DHT22;5118;48.570;7.916;2023-01-28T09:36:09;4.50;99.90
10155;DHT22;5118;48.570;7.916;2023-01-28T09:38:38;4.50;99.90
10155;DHT22;5118;48.570;7.916;2023-01-28T09:41:23;4.50;99.90
10155;DHT22;5118;48.570;7.916;2023-01-28T09:44:05;4.60;99.90
10155;DHT22;5118;48.570;7.916;2023-01-28T09:46:35;4.70;99.90
10155;DHT22;5118;48.570;7.916;2023-01-28T09:49:14;4.80;99.90
10155;DHT22;5118;48.570;7.916;2023-01-28T09:51:49;4.80;99.90
10155;DHT22;5118;48.570;7.916;2023-01-28T09:54:25;4.90;99.90
10155;DHT22;5118;48.570;7.916;2023-01-28T09:57:00;5.00;99.90
10155;DHT22;5118;48.570;7.916;2023-01-28T09:59:33;5.00;99.90
10155;DHT22;5118;48.570;7.916;2023-01-28T10:02:17;5.10;99.90
10155;DHT22;5118;48.570;7.916;2023-01-28T10:04:56;5.20;99.90
10155;DHT22;5118;48.570;7.916;2023-01-28T10:07:35;5.30;99.90
10155;DHT22;5118;48.570;7.916;2023-01-28T10:10:10;5.30;99.90
10155;DHT22;5118;48.570;7.916;2023-01-28T10:13:03;5.30;99.90
10155;DHT22;5118;48.570;7.916;2023-01-28T10:15:47;5.40;99.90
10155;DHT22;5118;48.570;7.916;2023-01-28T10:18:23;5.40;99.90
10155;DHT22;5118;48.570;7.916;2023-01-28T10:21:01;5.50;99.90
10155;DHT22;5118;48.570;7.916;2023-01-28T10:23:40;5.60;99.90
10155;DHT22;5118;48.570;7.916;2023-01-28T10:26:18;5.70;99.90
10155;DHT22;5118;48.570;7.916;2023-01-28T10:28:54;5.80;99.90
10155;DHT22;5118;48.570;7.916;2023-01-28T10:31:30;5.90;99.90
10155;DHT22;5118;48.570;7.916;2023-01-28T10:33:59;6.10;99.90
10155;DHT22;5118;48.570;7.916;2023-01-28T10:36:30;6.30;99.90
10155;DHT22;5118;48.570;7.916;2023-01-28T10:39:00;6.40;99.90
10155;DHT22;5118;48.570;7.916;2023-01-28T10:41:29;6.60;99.90
10155;DHT22;5118;48.570;7.916;2023-01-28T10:43:57;6.70;99.90
10155;DHT22;5118;48.570;7.916;2023-01-28T10:46:27;6.80;99.90
10155;DHT22;5118;48.570;7.916;2023-01-28T10:49:01;6.90;99.90
10155;DHT22;5118;48.570;7.916;2023-01-28T10:51:34;7.00;99.90
10155;DHT22;5118;48.570;7.916;2023-01-28T10:54:18;7.10;99.90
10155;DHT22;5118;48.570;7.916;2023-01-28T10:56:47;7.30;99.90
10155;DHT22;5118;48.570;7.916;2023-01-28T10:59:24;7.40;99.90
10155;DHT22;5118;48.570;7.916;2023-01-28T11:01:54;7.40;99.90
10155;DHT22;5118;48.570;7.916;2023-01-28T11:04:25;7.40;99.90
10155;DHT22;5118;48.570;7.916;2023-01-28T11:06:59;7.50;99.90
10155;DHT22;5118;48.570;7.916;2023-01-28T11:09:30;7.50;99.90
10155;DHT22;5118;48.570;7.916;2023-01-28T11:12:10;7.50;99.90
10155;DHT22;5118;48.570;7.916;2023-01-28T11:14:48;7.50;99.90
10155;DHT22;5118;48.570;7.916;2023-01-28T11:17:18;7.40;99.90
10155;DHT22;5118;48.570;7.916;2023-01-28T11:19:47;7.50;99.90
10155;DHT22;5118;48.570;7.916;2023-01-28T11:22:21;7.40;99.90
10155;DHT22;5118;48.570;7.916;2023-01-28T11:24:52;7.40;99.90
10155;DHT22;5118;48.570;7.916;2023-01-28T11:27:26;7.40;99.90
10155;DHT22;5118;48.570;7.916;2023-01-28T11:29:56;7.40;99.90
10155;DHT22;5118;48.570;7.916;2023-01-28T11:32:28;7.20;99.90
10155;DHT22;5118;48.570;7.916;2023-01-28T11:34:57;7.20;99.90
10155;DHT22;5118;48.570;7.916;2023-01-28T11:37:27;7.20;99.90
10155;DHT22;5118;48.570;7.916;2023-01-28T11:40:09;7.20;99.90
10155;DHT22;5118;48.570;7.916;2023-01-28T11:42:48;7.20;99.90
10155;DHT22;5118;48.570;7.916;2023-01-28T11:45:19;7.20;99.90
10155;DHT22;5118;48.570;7.916;2023-01-28T11:50:48;7.20;99.90
10155;DHT22;5118;48.570;7.916;2023-01-28T11:53:36;7.10;99.90
10155;DHT22;5118;48.570;7.916;2023-01-28T11:56:18;7.00;99.90
10155;DHT22;5118;48.570;7.916;2023-01-28T11:58:57;7.00;99.90
10155;DHT22;5118;48.570;7.916;2023-01-28T12:01:33;6.90;99.90
10155;DHT22;5118;48.570;7.916;2023-01-28T12:04:20;6.70;99.90
10155;DHT22;5118;48.570;7.916;2023-01-28T12:07:11;6.40;99.90
10155;DHT22;5118;48.570;7.916;2023-01-28T12:09:48;6.20;99.90
10155;DHT22;5118;48.570;7.916;2023-01-28T12:12:40;6.10;99.90
10155;DHT22;5118;48.570;7.916;2023-01-28T12:18:17;5.90;99.90
10155;DHT22;5118;48.570;7.916;2023-01-28T12:20:54;5.90;99.90
10155;DHT22;5118;48.570;7.916;2023-01-28T12:23:34;5.80;99.90
10155;DHT22;5118;48.570;7.916;2023-01-28T12:26:10;5.80;99.90
10155;DHT22;5118;48.570;7.916;2023-01-28T12:28:54;5.70;99.90
10155;DHT22;5118;48.570;7.916;2023-01-28T12:31:49;5.70;99.90
10155;DHT22;5118;48.570;7.916;2023-01-28T12:34:48;5.60;99.90
10155;DHT22;5118;48.570;7.916;2023-01-28T12:37:24;5.50;99.90
10155;DHT22;5118;48.570;7.916;2023-01-28T12:40:10;5.40;99.90
10155;DHT22;5118;48.570;7.916;2023-01-28T12:42:48;5.40;99.90
10155;DHT22;5118;48.570;7.916;2023-01-28T12:45:23;5.40;99.90
10155;DHT22;5118;48.570;7.916;2023-01-28T12:47:57;5.30;99.90
10155;DHT22;5118;48.570;7.916;2023-01-28T12:50:30;5.30;99.90
10155;DHT22;5118;48.570;7.916;2023-01-28T12:53:02;5.20;99.90
10155;DHT22;5118;48.570;7.916;2023-01-28T12:55:39;5.20;99.90
10155;DHT22;5118;48.570;7.916;2023-01-28T12:58:13;5.20;99.90
10155;DHT22;5118;48.570;7.916;2023-01-28T13:00:47;5.10;99.90
10155;DHT22;5118;48.570;7.916;2023-01-28T13:03:20;5.20;99.90
10155;DHT22;5118;48.570;7.916;2023-01-28T13:05:55;5.30;99.90
10155;DHT22;5118;48.570;7.916;2023-01-28T13:08:27;5.30;99.90
10155;DHT22;5118;48.570;7.916;2023-01-28T13:10:57;5.40;99.90
10155;DHT22;5118;48.570;7.916;2023-01-28T13:13:29;5.60;99.90
10155;DHT22;5118;48.570;7.916;2023-01-28T13:16:00;5.80;99.90
10155;DHT22;5118;48.570;7.916;2023-01-28T13:18:31;5.90;99.90
10155;DHT22;5118;48.570;7.916;2023-01-28T13:21:00;5.90;99.90
10155;DHT22;5118;48.570;7.916;2023-01-28T13:23:38;5.90;99.90
10155;DHT22;5118;48.570;7.916;2023-01-28T13:26:26;5.90;99.90
10155;DHT22;5118;48.570;7.916;2023-01-28T13:31:52;5.70;99.90
10155;DHT22;5118;48.570;7.916;2023-01-28T13:34:33;5.60;99.90
10155;DHT22;5118;48.570;7.916;2023-01-28T13:37:06;5.50;99.90
10155;DHT22;5118;48.570;7.916;2023-01-28T13:39:46;5.40;99.90
10155;DHT22;5118;48.570;7.916;2023-01-28T13:42:24;5.30;99.90
10155;DHT22;5118;48.570;7.916;2023-01-28T13:44:53;5.20;99.90
10155;DHT22;5118;48.570;7.916;2023-01-28T13:47:26;5.20;99.90
10155;DHT22;5118;48.570;7.916;2023-01-28T13:50:00;5.10;99.90
10155;DHT22;5118;48.570;7.916;2023-01-28T13:52:31;5.10;99.90
10155;DHT22;5118;48.570;7.916;2023-01-28T13:55:03;5.00;99.90
10155;DHT22;5118;48.570;7.916;2023-01-28T14:00:51;5.00;99.90
10155;DHT22;5118;48.570;7.916;2023-01-28T14:04:14;4.90;99.90
10155;DHT22;5118;48.570;7.916;2023-01-28T14:07:16;4.80;99.90
10155;DHT22;5118;48.570;7.916;2023-01-28T14:12:51;4.70;99.90
10155;DHT22;5118;48.570;7.916;2023-01-28T14:15:41;4.50;99.90
10155;DHT22;5118;48.570;7.916;2023-01-28T14:18:20;4.50;99.90
10155;DHT22;5118;48.570;7.916;2023-01-28T14:20:54;4.50;99.90
10155;DHT22;5118;48.570;7.916;2023-01-28T14:23:23;4.40;99.90
10155;DHT22;5118;48.570;7.916;2023-01-28T14:26:13;4.40;99.90
10155;DHT22;5118;48.570;7.916;2023-01-28T14:28:49;4.40;99.90
10155;DHT22;5118;48.570;7.916;2023-01-28T14:31:27;4.40;99.90
10155;DHT22;5118;48.570;7.916;2023-01-28T14:34:03;4.40;99.90
10155;DHT22;5118;48.570;7.916;2023-01-28T14:36:37;4.40;99.90
10155;DHT22;5118;48.570;7.916;2023-01-28T14:39:15;4.30;99.90
10155;DHT22;5118;48.570;7.916;2023-01-28T14:41:46;4.30;99.90
10155;DHT22;5118;48.570;7.916;2023-01-28T14:44:26;4.30;99.90
10155;DHT22;5118;48.570;7.916;2023-01-28T14:47:09;4.20;99.90
10155;DHT22;5118;48.570;7.916;2023-01-28T14:49:48;4.20;99.90
10155;DHT22;5118;48.570;7.916;2023-01-28T14:52:37;4.20;99.90
10155;DHT22;5118;48.570;7.916;2023-01-28T14:55:24;4.20;99.90
10155;DHT22;5118;48.570;7.916;2023-01-28T14:57:56;4.20;99.90
10155;DHT22;5118;48.570;7.916;2023-01-28T15:00:27;4.20;99.90
10155;DHT22;5118;48.570;7.916;2023-01-28T15:02:55;4.20;99.90
10155;DHT22;5118;48.570;7.916;2023-01-28T15:05:27;4.20;99.90
10155;DHT22;5118;48.570;7.916;2023-01-28T15:07:57;4.20;99.90
10155;DHT22;5118;48.570;7.916;2023-01-28T15:10:26;4.10;99.90
10155;DHT22;5118;48.570;7.916;2023-01-28T15:12:58;4.10;99.90
10155;DHT22;5118;48.570;7.916;2023-01-28T15:15:30;4.10;99.90
10155;DHT22;5118;48.570;7.916;2023-01-28T15:18:02;4.10;99.90
10155;DHT22;5118;48.570;7.916;2023-01-28T15:20:31;4.10;99.90
10155;DHT22;5118;48.570;7.916;2023-01-28T15:23:02;4.10;99.90
10155;DHT22;5118;48.570;7.916;2023-01-28T15:25:33;4.10;99.90
10155;DHT22;5118;48.570;7.916;2023-01-28T15:28:01;4.10;99.90
10155;DHT22;5118;48.570;7.916;2023-01-28T15:30:31;4.10;99.90
10155;DHT22;5118;48.570;7.916;2023-01-28T15:33:01;4.00;99.90
10155;DHT22;5118;48.570;7.916;2023-01-28T15:35:31;4.00;99.90
10155;DHT22;5118;48.570;7.916;2023-01-28T15:38:01;4.00;99.90
10155;DHT22;5118;48.570;7.916;2023-01-28T15:40:39;4.00;99.90
10155;DHT22;5118;48.570;7.916;2023-01-28T15:43:16;4.00;99.90
10155;DHT22;5118;48.570;7.916;2023-01-28T15:45:46;4.00;99.90
10155;DHT22;5118;48.570;7.916;2023-01-28T15:48:15;4.00;99.90
10155;DHT22;5118;48.570;7.916;2023-01-28T15:50:44;4.00;99.90
10155;DHT22;5118;48.570;7.916;2023-01-28T15:53:14;4.00;99.90
10155;DHT22;5118;48.570;7.916;2023-01-28T15:55:43;3.90;99.90
10155;DHT22;5118;48.570;7.916;2023-01-28T16:01:13;3.90;99.90
10155;DHT22;5118;48.570;7.916;2023-01-28T16:03:44;3.90;99.90
10155;DHT22;5118;48.570;7.916;2023-01-28T16:06:15;3.80;99.90
10155;DHT22;5118;48.570;7.916;2023-01-28T16:08:50;3.80;99.90
10155;DHT22;5118;48.570;7.916;2023-01-28T16:11:25;3.80;99.90
10155;DHT22;5118;48.570;7.916;2023-01-28T16:13:55;3.80;99.90
10155;DHT22;5118;48.570;7.916;2023-01-28T16:16:27;3.80;99.90
10155;DHT22;5118;48.570;7.916;2023-01-28T16:18:56;3.80;99.90
10155;DHT22;5118;48.570;7.916;2023-01-28T16:21:26;3.80;99.90
10155;DHT22;5118;48.570;7.916;2023-01-28T16:24:01;3.80;99.90
10155;DHT22;5118;48.570;7.916;2023-01-28T16:26:31;3.80;99.90
10155;DHT22;5118;48.570;7.916;2023-01-28T16:29:07;3.70;99.90
10155;DHT22;5118;48.570;7.916;2023-01-28T16:31:38;3.70;99.90
10155;DHT22;5118;48.570;7.916;2023-01-28T16:34:10;3.70;99.90
10155;DHT22;5118;48.570;7.916;2023-01-28T16:36:38;3.70;99.90
10155;DHT22;5118;48.570;7.916;2023-01-28T16:39:10;3.70;99.90
10155;DHT22;5118;48.570;7.916;2023-01-28T16:41:41;3.70;99.90
10155;DHT22;5118;48.570;7.916;2023-01-28T16:44:12;3.70;99.90
10155;DHT22;5118;48.570;7.916;2023-01-28T16:46:40;3.70;99.90
10155;DHT22;5118;48.570;7.916;2023-01-28T16:49:09;3.70;99.90
10155;DHT22;5118;48.570;7.916;2023-01-28T16:51:40;3.60;99.90
10155;DHT22;5118;48.570;7.916;2023-01-28T16:54:12;3.60;99.90
10155;DHT22;5118;48.570;7.916;2023-01-28T16:56:42;3.60;99.90
10155;DHT22;5118;48.570;7.916;2023-01-28T16:59:14;3.60;99.90
10155;DHT22;5118;48.570;7.916;2023-01-28T17:01:42;3.60;99.90
10155;DHT22;5118;48.570;7.916;2023-01-28T17:04:11;3.60;99.90
10155;DHT22;5118;48.570;7.916;2023-01-28T17:06:40;3.50;99.90